sensor_id;sensor_type;location;lat;lon;timestamp;pressure;altitude;pressure_sealevel;temperature;humidity
18533;BME280;9396;51.510;11.934;2023-02-17T00:01:12;101019.16;;;7.39;100.00
18533;BME280;9396;51.510;11.934;2023-02-17T00:03:41;101010.97;;;7.42;100.00
18533;BME280;9396;51.510;11.934;2023-02-17T00:06:09;101001.94;;;7.34;100.00
18533;BME280;9396;51.510;11.934;2023-02-17T00:08:36;101005.50;;;7.11;100.00
18533;BME280;9396;51.510;11.934;2023-02-17T00:11:03;101005.50;;;7.11;100.00
18533;BME280;9396;51.510;11.934;2023-02-17T00:13:31;100989.28;;;7.26;100.00
18533;BME280;9396;51.510;11.934;2023-02-17T00:15:58;100987.25;;;7.41;100.00
18533;BME280;9396;51.510;11.934;2023-02-17T00:18:25;100976.94;;;7.38;100.00
18533;BME280;9396;51.510;11.934;2023-02-17T00:20:53;100963.44;;;7.41;100.00
18533;BME280;9396;51.510;11.934;2023-02-17T00:23:19;100955.97;;;7.46;100.00
18533;BME280;9396;51.510;11.934;2023-02-17T00:25:46;100956.22;;;7.32;100.00
18533;BME280;9396;51.510;11.934;2023-02-17T00:28:13;100961.19;;;7.36;100.00
18533;BME280;9396;51.510;11.934;2023-02-17T00:30:39;100956.72;;;7.48;100.00
18533;BME280;9396;51.510;11.934;2023-02-17T00:33:06;100962.84;;;7.37;100.00
18533;BME280;9396;51.510;11.934;2023-02-17T00:35:33;100955.16;;;7.34;100.00
18533;BME280;9396;51.510;11.934;2023-02-17T00:38:01;100958.63;;;7.24;100.00
18533;BME280;9396;51.510;11.934;2023-02-17T00:40:27;100957.81;;;7.34;100.00
18533;BME280;9396;51.510;11.934;2023-02-17T00:42:54;100954.81;;;7.28;100.00
18533;BME280;9396;51.510;11.934;2023-02-17T00:45:21;100944.81;;;7.31;100.00
18533;BME280;9396;51.510;11.934;2023-02-17T00:47:47;100943.84;;;7.43;100.00
18533;BME280;9396;51.510;11.934;2023-02-17T00:50:14;100945.41;;;7.46;100.00
18533;BME280;9396;51.510;11.934;2023-02-17T00:52:41;100945.06;;;7.50;100.00
18533;BME280;9396;51.510;11.934;2023-02-17T00:55:09;100956.22;;;7.43;100.00
18533;BME280;9396;51.510;11.934;2023-02-17T00:57:35;100968.00;;;7.39;100.00
18533;BME280;9396;51.510;11.934;2023-02-17T01:00:02;100957.19;;;7.53;100.00
18533;BME280;9396;51.510;11.934;2023-02-17T01:02:30;100955.50;;;7.41;100.00
18533;BME280;9396;51.510;11.934;2023-02-17T01:04:56;100959.59;;;7.45;100.00
18533;BME280;9396;51.510;11.934;2023-02-17T01:07:23;100962.72;;;7.39;100.00
18533;BME280;9396;51.510;11.934;2023-02-17T01:09:49;100959.13;;;7.51;100.00
18533;BME280;9396;51.510;11.934;2023-02-17T01:12:17;100955.13;;;7.56;100.00
18533;BME280;9396;51.510;11.934;2023-02-17T01:14:44;100950.81;;;7.44;100.00
18533;BME280;9396;51.510;11.934;2023-02-17T01:17:11;100959.34;;;7.37;100.00
18533;BME280;9396;51.510;11.934;2023-02-17T01:19:37;100943.00;;;7.43;100.00
18533;BME280;9396;51.510;11.934;2023-02-17T01:22:04;100944.19;;;7.61;100.00
18533;BME280;9396;51.510;11.934;2023-02-17T01:24:30;100943.13;;;7.52;100.00
18533;BME280;9396;51.510;11.934;2023-02-17T01:26:57;100936.97;;;7.63;100.00
18533;BME280;9396;51.510;11.934;2023-02-17T01:29:25;100945.41;;;7.68;100.00
18533;BME280;9396;51.510;11.934;2023-02-17T01:31:52;100952.38;;;7.69;100.00
18533;BME280;9396;51.510;11.934;2023-02-17T01:34:18;100935.78;;;7.56;100.00
18533;BME280;9396;51.510;11.934;2023-02-17T01:36:45;100933.88;;;7.47;100.00
18533;BME280;9396;51.510;11.934;2023-02-17T01:39:12;100922.69;;;7.43;100.00
18533;BME280;9396;51.510;11.934;2023-02-17T01:41:39;100927.38;;;7.51;100.00
18533;BME280;9396;51.510;11.934;2023-02-17T01:44:12;100918.06;;;7.56;100.00
18533;BME280;9396;51.510;11.934;2023-02-17T01:46:42;100924.09;;;7.58;100.00
18533;BME280;9396;51.510;11.934;2023-02-17T01:49:17;100922.31;;;7.59;100.00
18533;BME280;9396;51.510;11.934;2023-02-17T01:51:47;100925.41;;;7.64;100.00
18533;BME280;9396;51.510;11.934;2023-02-17T01:54:20;100914.00;;;7.64;100.00
18533;BME280;9396;51.510;11.934;2023-02-17T01:56:49;100908.09;;;7.60;100.00
18533;BME280;9396;51.510;11.934;2023-02-17T01:59:18;100910.97;;;7.68;100.00
18533;BME280;9396;51.510;11.934;2023-02-17T02:01:49;100913.50;;;7.70;100.00
18533;BME280;9396;51.510;11.934;2023-02-17T02:04:20;100910.13;;;7.68;100.00
18533;BME280;9396;51.510;11.934;2023-02-17T02:06:48;100900.50;;;7.67;100.00
18533;BME280;9396;51.510;11.934;2023-02-17T02:09:18;100894.38;;;7.66;100.00
18533;BME280;9396;51.510;11.934;2023-02-17T02:11:47;100887.41;;;7.65;100.00
18533;BME280;9396;51.510;11.934;2023-02-17T02:14:14;100886.44;;;7.66;100.00
18533;BME280;9396;51.510;11.934;2023-02-17T02:16:46;100871.66;;;7.64;100.00
18533;BME280;9396;51.510;11.934;2023-02-17T02:22:27;100790.97;;;7.25;100.00
18533;BME280;9396;51.510;11.934;2023-02-17T02:25:09;100861.13;;;7.73;100.00
18533;BME280;9396;51.510;11.934;2023-02-17T02:27:47;100852.72;;;7.68;100.00
18533;BME280;9396;51.510;11.934;2023-02-17T02:30:42;100844.31;;;7.63;100.00
18533;BME280;9396;51.510;11.934;2023-02-17T02:33:17;100852.25;;;7.74;100.00
18533;BME280;9396;51.510;11.934;2023-02-17T02:35:54;100763.06;;;7.32;100.00
18533;BME280;9396;51.510;11.934;2023-02-17T02:38:27;100843.94;;;7.68;100.00
18533;BME280;9396;51.510;11.934;2023-02-17T02:41:00;100850.53;;;7.73;100.00
18533;BME280;9396;51.510;11.934;2023-02-17T02:43:29;100833.94;;;7.71;100.00
18533;BME280;9396;51.510;11.934;2023-02-17T02:45:55;100831.16;;;7.73;100.00
18533;BME280;9396;51.510;11.934;2023-02-17T02:48:23;100829.88;;;7.67;100.00
18533;BME280;9396;51.510;11.934;2023-02-17T02:51:07;100721.28;;;7.04;100.00
18533;BME280;9396;51.510;11.934;2023-02-17T02:53:47;100826.00;;;7.71;100.00
18533;BME280;9396;51.510;11.934;2023-02-17T02:56:24;100821.34;;;7.64;100.00
18533;BME280;9396;51.510;11.934;2023-02-17T02:58:59;100822.88;;;7.66;100.00
18533;BME280;9396;51.510;11.934;2023-02-17T03:01:32;100823.38;;;7.60;100.00
18533;BME280;9396;51.510;11.934;2023-02-17T03:04:08;100824.19;;;7.72;100.00
18533;BME280;9396;51.510;11.934;2023-02-17T03:06:42;100823.34;;;7.71;100.00
18533;BME280;9396;51.510;11.934;2023-02-17T03:09:13;100815.94;;;7.65;100.00
18533;BME280;9396;51.510;11.934;2023-02-17T03:11:43;100815.94;;;7.65;100.00
18533;BME280;9396;51.510;11.934;2023-02-17T03:14:13;100662.69;;;6.77;100.00
18533;BME280;9396;51.510;11.934;2023-02-17T03:16:41;100800.28;;;7.62;100.00
18533;BME280;9396;51.510;11.934;2023-02-17T03:19:10;100794.03;;;7.63;100.00
18533;BME280;9396;51.510;11.934;2023-02-17T03:21:40;100802.44;;;7.68;100.00
18533;BME280;9396;51.510;11.934;2023-02-17T03:24:08;100805.06;;;7.68;100.00
18533;BME280;9396;51.510;11.934;2023-02-17T03:26:34;100798.00;;;7.69;100.00
18533;BME280;9396;51.510;11.934;2023-02-17T03:29:01;100790.38;;;7.75;100.00
18533;BME280;9396;51.510;11.934;2023-02-17T03:31:28;100786.06;;;7.74;100.00
18533;BME280;9396;51.510;11.934;2023-02-17T03:33:54;100789.66;;;7.73;100.00
18533;BME280;9396;51.510;11.934;2023-02-17T03:36:22;100792.28;;;7.73;100.00
18533;BME280;9396;51.510;11.934;2023-02-17T03:38:49;100793.72;;;7.77;100.00
18533;BME280;9396;51.510;11.934;2023-02-17T03:41:16;100794.59;;;7.78;100.00
18533;BME280;9396;51.510;11.934;2023-02-17T03:43:42;100799.03;;;7.77;100.00
18533;BME280;9396;51.510;11.934;2023-02-17T03:46:10;100796.75;;;7.73;100.00
18533;BME280;9396;51.510;11.934;2023-02-17T03:48:37;100799.16;;;7.76;100.00
18533;BME280;9396;51.510;11.934;2023-02-17T03:51:12;100791.09;;;7.77;100.00
18533;BME280;9396;51.510;11.934;2023-02-17T03:53:40;100796.97;;;7.81;100.00
18533;BME280;9396;51.510;11.934;2023-02-17T03:56:07;100795.16;;;7.81;100.00
18533;BME280;9396;51.510;11.934;2023-02-17T03:58:34;100654.25;;;6.94;100.00
18533;BME280;9396;51.510;11.934;2023-02-17T04:01:01;100797.16;;;7.89;100.00
18533;BME280;9396;51.510;11.934;2023-02-17T04:03:28;100790.06;;;7.89;100.00
18533;BME280;9396;51.510;11.934;2023-02-17T04:05:54;100788.53;;;7.87;100.00
18533;BME280;9396;51.510;11.934;2023-02-17T04:08:22;100745.16;;;7.67;100.00
18533;BME280;9396;51.510;11.934;2023-02-17T04:10:52;100785.22;;;7.94;100.00
18533;BME280;9396;51.510;11.934;2023-02-17T04:13:19;100775.47;;;7.95;100.00
18533;BME280;9396;51.510;11.934;2023-02-17T04:15:46;100765.91;;;8.03;100.00
18533;BME280;9396;51.510;11.934;2023-02-17T04:18:13;100776.97;;;8.08;100.00
18533;BME280;9396;51.510;11.934;2023-02-17T04:20:40;100773.81;;;8.14;100.00
18533;BME280;9396;51.510;11.934;2023-02-17T04:23:06;100768.78;;;8.11;100.00
18533;BME280;9396;51.510;11.934;2023-02-17T04:25:33;100760.56;;;8.14;100.00
18533;BME280;9396;51.510;11.934;2023-02-17T04:28:02;100760.81;;;8.11;100.00
18533;BME280;9396;51.510;11.934;2023-02-17T04:30:29;100757.31;;;8.11;100.00
18533;BME280;9396;51.510;11.934;2023-02-17T04:32:56;100762.56;;;8.01;100.00
18533;BME280;9396;51.510;11.934;2023-02-17T04:35:23;100758.94;;;8.02;100.00
18533;BME280;9396;51.510;11.934;2023-02-17T04:37:50;100754.03;;;7.98;100.00
18533;BME280;9396;51.510;11.934;2023-02-17T04:40:16;100696.09;;;7.63;100.00
18533;BME280;9396;51.510;11.934;2023-02-17T04:42:43;100745.31;;;8.07;100.00
18533;BME280;9396;51.510;11.934;2023-02-17T04:45:12;100746.47;;;7.93;100.00
18533;BME280;9396;51.510;11.934;2023-02-17T04:47:38;100750.41;;;7.99;100.00
18533;BME280;9396;51.510;11.934;2023-02-17T04:50:06;100740.72;;;8.09;100.00
18533;BME280;9396;51.510;11.934;2023-02-17T04:52:33;100746.00;;;8.09;100.00
18533;BME280;9396;51.510;11.934;2023-02-17T04:55:00;100742.50;;;8.08;100.00
18533;BME280;9396;51.510;11.934;2023-02-17T04:57:27;100748.41;;;8.12;100.00
18533;BME280;9396;51.510;11.934;2023-02-17T04:59:53;100732.97;;;8.17;100.00
18533;BME280;9396;51.510;11.934;2023-02-17T05:02:21;100739.47;;;8.24;100.00
18533;BME280;9396;51.510;11.934;2023-02-17T05:04:49;100739.53;;;8.22;100.00
18533;BME280;9396;51.510;11.934;2023-02-17T05:07:16;100736.69;;;8.25;100.00
18533;BME280;9396;51.510;11.934;2023-02-17T05:09:43;100729.88;;;8.32;100.00
18533;BME280;9396;51.510;11.934;2023-02-17T05:12:09;100733.09;;;8.36;100.00
18533;BME280;9396;51.510;11.934;2023-02-17T05:14:36;100715.78;;;8.32;100.00
18533;BME280;9396;51.510;11.934;2023-02-17T05:17:03;100722.88;;;8.31;100.00
18533;BME280;9396;51.510;11.934;2023-02-17T05:19:31;100708.38;;;8.26;100.00
18533;BME280;9396;51.510;11.934;2023-02-17T05:21:58;100706.75;;;8.34;100.00
18533;BME280;9396;51.510;11.934;2023-02-17T05:24:24;100699.31;;;8.28;100.00
18533;BME280;9396;51.510;11.934;2023-02-17T05:26:51;100702.94;;;8.27;100.00
18533;BME280;9396;51.510;11.934;2023-02-17T05:29:18;100710.63;;;8.30;100.00
18533;BME280;9396;51.510;11.934;2023-02-17T05:31:44;100711.84;;;8.26;100.00
18533;BME280;9396;51.510;11.934;2023-02-17T05:34:11;100705.44;;;8.29;100.00
18533;BME280;9396;51.510;11.934;2023-02-17T05:36:39;100708.69;;;8.32;100.00
18533;BME280;9396;51.510;11.934;2023-02-17T05:39:06;100714.69;;;8.34;100.00
18533;BME280;9396;51.510;11.934;2023-02-17T05:41:33;100721.50;;;8.27;100.00
18533;BME280;9396;51.510;11.934;2023-02-17T05:43:59;100730.47;;;8.36;100.00
18533;BME280;9396;51.510;11.934;2023-02-17T05:46:26;100729.69;;;8.24;100.00
18533;BME280;9396;51.510;11.934;2023-02-17T05:48:53;100721.13;;;8.21;100.00
18533;BME280;9396;51.510;11.934;2023-02-17T05:51:19;100729.06;;;8.21;100.00
18533;BME280;9396;51.510;11.934;2023-02-17T05:53:47;100727.75;;;8.26;100.00
18533;BME280;9396;51.510;11.934;2023-02-17T05:56:14;100720.66;;;8.27;100.00
18533;BME280;9396;51.510;11.934;2023-02-17T05:58:40;100719.78;;;8.26;100.00
18533;BME280;9396;51.510;11.934;2023-02-17T06:01:07;100718.00;;;8.27;100.00
18533;BME280;9396;51.510;11.934;2023-02-17T06:03:34;100724.31;;;8.35;100.00
18533;BME280;9396;51.510;11.934;2023-02-17T06:06:01;100717.06;;;8.37;100.00
18533;BME280;9396;51.510;11.934;2023-02-17T06:08:27;100721.16;;;8.41;100.00
18533;BME280;9396;51.510;11.934;2023-02-17T06:10:56;100719.72;;;8.37;100.00
18533;BME280;9396;51.510;11.934;2023-02-17T06:13:22;100705.69;;;8.46;100.00
18533;BME280;9396;51.510;11.934;2023-02-17T06:15:49;100708.31;;;8.46;100.00
18533;BME280;9396;51.510;11.934;2023-02-17T06:18:15;100709.13;;;8.37;100.00
18533;BME280;9396;51.510;11.934;2023-02-17T06:20:42;100695.88;;;8.37;100.00
18533;BME280;9396;51.510;11.934;2023-02-17T06:23:09;100694.78;;;8.40;100.00
18533;BME280;9396;51.510;11.934;2023-02-17T06:25:37;100694.63;;;8.41;100.00
18533;BME280;9396;51.510;11.934;2023-02-17T06:28:05;100687.63;;;8.40;100.00
18533;BME280;9396;51.510;11.934;2023-02-17T06:30:32;100685.97;;;8.39;100.00
18533;BME280;9396;51.510;11.934;2023-02-17T06:32:58;100682.09;;;8.43;100.00
18533;BME280;9396;51.510;11.934;2023-02-17T06:35:25;100683.19;;;8.41;100.00
18533;BME280;9396;51.510;11.934;2023-02-17T06:37:52;100673.00;;;8.46;100.00
18533;BME280;9396;51.510;11.934;2023-02-17T06:40:19;100686.13;;;8.38;100.00
18533;BME280;9396;51.510;11.934;2023-02-17T06:42:45;100675.09;;;8.42;100.00
18533;BME280;9396;51.510;11.934;2023-02-17T06:45:14;100666.22;;;8.53;100.00
18533;BME280;9396;51.510;11.934;2023-02-17T06:47:40;100656.72;;;8.50;100.00
18533;BME280;9396;51.510;11.934;2023-02-17T06:50:08;100653.13;;;8.61;100.00
18533;BME280;9396;51.510;11.934;2023-02-17T06:52:34;100646.44;;;8.67;100.00
18533;BME280;9396;51.510;11.934;2023-02-17T06:55:01;100651.06;;;8.64;100.00
18533;BME280;9396;51.510;11.934;2023-02-17T06:57:29;100653.00;;;8.62;100.00
18533;BME280;9396;51.510;11.934;2023-02-17T06:59:55;100655.13;;;8.69;100.00
18533;BME280;9396;51.510;11.934;2023-02-17T07:02:23;100647.31;;;8.77;100.00
18533;BME280;9396;51.510;11.934;2023-02-17T07:04:50;100647.75;;;8.91;100.00
18533;BME280;9396;51.510;11.934;2023-02-17T07:07:16;100655.84;;;8.90;100.00
18533;BME280;9396;51.510;11.934;2023-02-17T07:09:43;100660.88;;;8.93;100.00
18533;BME280;9396;51.510;11.934;2023-02-17T07:12:10;100662.13;;;8.89;100.00
18533;BME280;9396;51.510;11.934;2023-02-17T07:14:36;100663.50;;;8.83;100.00
18533;BME280;9396;51.510;11.934;2023-02-17T07:17:03;100669.50;;;8.76;100.00
18533;BME280;9396;51.510;11.934;2023-02-17T07:19:31;100668.00;;;8.83;100.00
18533;BME280;9396;51.510;11.934;2023-02-17T07:21:58;100665.19;;;8.94;100.00
18533;BME280;9396;51.510;11.934;2023-02-17T07:24:25;100663.81;;;8.90;100.00
18533;BME280;9396;51.510;11.934;2023-02-17T07:26:51;100671.06;;;8.88;100.00
18533;BME280;9396;51.510;11.934;2023-02-17T07:29:20;100674.13;;;8.93;100.00
18533;BME280;9396;51.510;11.934;2023-02-17T07:31:47;100677.31;;;8.87;100.00
18533;BME280;9396;51.510;11.934;2023-02-17T07:34:13;100687.69;;;8.90;100.00
18533;BME280;9396;51.510;11.934;2023-02-17T07:36:41;100685.03;;;8.90;100.00
18533;BME280;9396;51.510;11.934;2023-02-17T07:39:08;100669.25;;;8.88;100.00
18533;BME280;9396;51.510;11.934;2023-02-17T07:41:34;100669.41;;;8.96;100.00
18533;BME280;9396;51.510;11.934;2023-02-17T07:44:01;100655.16;;;8.97;100.00
18533;BME280;9396;51.510;11.934;2023-02-17T07:46:28;100651.53;;;8.98;100.00
18533;BME280;9396;51.510;11.934;2023-02-17T07:48:55;100629.75;;;9.04;100.00
18533;BME280;9396;51.510;11.934;2023-02-17T07:51:22;100635.63;;;9.08;100.00
18533;BME280;9396;51.510;11.934;2023-02-17T07:53:51;100644.00;;;9.03;100.00
18533;BME280;9396;51.510;11.934;2023-02-17T07:56:19;100637.59;;;9.06;100.00
18533;BME280;9396;51.510;11.934;2023-02-17T07:58:46;100640.50;;;9.03;100.00
18533;BME280;9396;51.510;11.934;2023-02-17T08:01:15;100639.97;;;9.09;100.00
18533;BME280;9396;51.510;11.934;2023-02-17T08:03:42;100642.06;;;9.15;100.00
18533;BME280;9396;51.510;11.934;2023-02-17T08:06:09;100566.34;;;8.73;100.00
18533;BME280;9396;51.510;11.934;2023-02-17T08:08:36;100634.78;;;9.17;100.00
18533;BME280;9396;51.510;11.934;2023-02-17T08:11:22;100616.91;;;9.19;100.00
18533;BME280;9396;51.510;11.934;2023-02-17T08:14:06;100611.34;;;9.22;100.00
18533;BME280;9396;51.510;11.934;2023-02-17T08:16:32;100609.66;;;9.30;100.00
18533;BME280;9396;51.510;11.934;2023-02-17T08:18:59;100619.69;;;9.36;100.00
18533;BME280;9396;51.510;11.934;2023-02-17T08:21:26;100612.44;;;9.38;100.00
18533;BME280;9396;51.510;11.934;2023-02-17T08:23:53;100621.38;;;9.47;100.00
18533;BME280;9396;51.510;11.934;2023-02-17T08:26:22;100611.31;;;9.41;100.00
18533;BME280;9396;51.510;11.934;2023-02-17T08:28:49;100618.59;;;9.39;100.00
18533;BME280;9396;51.510;11.934;2023-02-17T08:31:16;100613.69;;;9.44;100.00
18533;BME280;9396;51.510;11.934;2023-02-17T08:33:43;100604.19;;;9.41;100.00
18533;BME280;9396;51.510;11.934;2023-02-17T08:36:10;100601.41;;;9.43;100.00
18533;BME280;9396;51.510;11.934;2023-02-17T08:38:37;100524.75;;;9.02;100.00
18533;BME280;9396;51.510;11.934;2023-02-17T08:41:11;100604.59;;;9.46;100.00
18533;BME280;9396;51.510;11.934;2023-02-17T08:43:41;100591.88;;;9.50;100.00
18533;BME280;9396;51.510;11.934;2023-02-17T08:46:08;100598.59;;;9.54;100.00
18533;BME280;9396;51.510;11.934;2023-02-17T08:48:35;100593.28;;;9.54;100.00
18533;BME280;9396;51.510;11.934;2023-02-17T08:51:02;100599.25;;;9.56;100.00
18533;BME280;9396;51.510;11.934;2023-02-17T08:53:29;100591.03;;;9.59;100.00
18533;BME280;9396;51.510;11.934;2023-02-17T08:55:55;100588.38;;;9.59;100.00
18533;BME280;9396;51.510;11.934;2023-02-17T08:58:22;100596.50;;;9.57;100.00
18533;BME280;9396;51.510;11.934;2023-02-17T09:00:50;100593.41;;;9.62;100.00
18533;BME280;9396;51.510;11.934;2023-02-17T09:03:17;100460.25;;;8.82;100.00
18533;BME280;9396;51.510;11.934;2023-02-17T09:05:44;100601.50;;;9.70;100.00
18533;BME280;9396;51.510;11.934;2023-02-17T09:08:10;100600.66;;;9.69;100.00
18533;BME280;9396;51.510;11.934;2023-02-17T09:10:37;100591.69;;;9.70;100.00
18533;BME280;9396;51.510;11.934;2023-02-17T09:13:04;100590.59;;;9.73;100.00
18533;BME280;9396;51.510;11.934;2023-02-17T09:15:31;100598.41;;;9.74;100.00
18533;BME280;9396;51.510;11.934;2023-02-17T09:18:00;100583.72;;;9.80;100.00
18533;BME280;9396;51.510;11.934;2023-02-17T09:20:26;100575.88;;;9.79;100.00
18533;BME280;9396;51.510;11.934;2023-02-17T09:22:53;100570.97;;;9.84;100.00
18533;BME280;9396;51.510;11.934;2023-02-17T09:25:20;100466.03;;;9.33;100.00
18533;BME280;9396;51.510;11.934;2023-02-17T09:27:47;100538.53;;;9.90;100.00
18533;BME280;9396;51.510;11.934;2023-02-17T09:30:14;100546.63;;;9.88;100.00
18533;BME280;9396;51.510;11.934;2023-02-17T09:32:40;100535.72;;;9.91;100.00
18533;BME280;9396;51.510;11.934;2023-02-17T09:35:10;100540.03;;;9.92;100.00
18533;BME280;9396;51.510;11.934;2023-02-17T09:37:37;100549.00;;;9.91;100.00
18533;BME280;9396;51.510;11.934;2023-02-17T09:40:05;100555.19;;;9.82;100.00
18533;BME280;9396;51.510;11.934;2023-02-17T09:42:36;100552.34;;;9.93;100.00
18533;BME280;9396;51.510;11.934;2023-02-17T09:45:08;100552.75;;;9.98;100.00
18533;BME280;9396;51.510;11.934;2023-02-17T09:47:37;100554.09;;;10.02;100.00
18533;BME280;9396;51.510;11.934;2023-02-17T09:50:07;100547.97;;;10.02;100.00
18533;BME280;9396;51.510;11.934;2023-02-17T09:52:40;100530.59;;;10.07;100.00
18533;BME280;9396;51.510;11.934;2023-02-17T09:55:12;100541.34;;;10.06;100.00
18533;BME280;9396;51.510;11.934;2023-02-17T09:57:45;100525.28;;;10.07;100.00
18533;BME280;9396;51.510;11.934;2023-02-17T10:00:18;100519.69;;;10.10;100.00
18533;BME280;9396;51.510;11.934;2023-02-17T10:02:54;100518.13;;;10.17;100.00
18533;BME280;9396;51.510;11.934;2023-02-17T10:05:28;100495.59;;;10.21;100.00
18533;BME280;9396;51.510;11.934;2023-02-17T10:08:01;100496.41;;;10.22;100.00
18533;BME280;9396;51.510;11.934;2023-02-17T10:10:34;100478.59;;;10.32;100.00
18533;BME280;9396;51.510;11.934;2023-02-17T10:13:04;100499.13;;;10.39;100.00
18533;BME280;9396;51.510;11.934;2023-02-17T10:15:35;100493.19;;;10.45;100.00
18533;BME280;9396;51.510;11.934;2023-02-17T10:18:09;100464.28;;;10.50;100.00
18533;BME280;9396;51.510;11.934;2023-02-17T10:20:40;100472.81;;;10.54;100.00
18533;BME280;9396;51.510;11.934;2023-02-17T10:23:14;100461.56;;;10.60;100.00
18533;BME280;9396;51.510;11.934;2023-02-17T10:26:04;100472.97;;;10.70;100.00
18533;BME280;9396;51.510;11.934;2023-02-17T10:28:46;100474.50;;;10.72;100.00
18533;BME280;9396;51.510;11.934;2023-02-17T10:31:22;100483.38;;;10.81;100.00
18533;BME280;9396;51.510;11.934;2023-02-17T10:33:54;100476.59;;;10.87;100.00
18533;BME280;9396;51.510;11.934;2023-02-17T10:36:24;100469.47;;;10.87;100.00
18533;BME280;9396;51.510;11.934;2023-02-17T10:38:59;100472.34;;;10.94;100.00
18533;BME280;9396;51.510;11.934;2023-02-17T10:41:34;100465.03;;;10.96;100.00
18533;BME280;9396;51.510;11.934;2023-02-17T10:44:06;100460.06;;;11.01;100.00
18533;BME280;9396;51.510;11.934;2023-02-17T10:46:34;100458.47;;;11.08;100.00
18533;BME280;9396;51.510;11.934;2023-02-17T10:49:01;100452.16;;;11.09;100.00
18533;BME280;9396;51.510;11.934;2023-02-17T10:51:29;100426.16;;;11.03;100.00
18533;BME280;9396;51.510;11.934;2023-02-17T10:54:01;100443.84;;;11.12;100.00
18533;BME280;9396;51.510;11.934;2023-02-17T10:56:34;100447.50;;;11.11;100.00
18533;BME280;9396;51.510;11.934;2023-02-17T10:59:05;100449.50;;;11.09;100.00
18533;BME280;9396;51.510;11.934;2023-02-17T11:01:35;100439.47;;;11.03;100.00
18533;BME280;9396;51.510;11.934;2023-02-17T11:04:05;100444.31;;;11.07;100.00
18533;BME280;9396;51.510;11.934;2023-02-17T11:06:36;100447.38;;;11.12;100.00
18533;BME280;9396;51.510;11.934;2023-02-17T11:09:15;100439.38;;;11.12;100.00
18533;BME280;9396;51.510;11.934;2023-02-17T11:11:49;100438.69;;;11.10;100.00
18533;BME280;9396;51.510;11.934;2023-02-17T11:14:22;100434.19;;;11.11;100.00
18533;BME280;9396;51.510;11.934;2023-02-17T11:16:53;100447.88;;;11.16;100.00
18533;BME280;9396;51.510;11.934;2023-02-17T11:19:24;100429.28;;;11.24;100.00
18533;BME280;9396;51.510;11.934;2023-02-17T11:21:53;100418.03;;;11.30;100.00
18533;BME280;9396;51.510;11.934;2023-02-17T11:24:22;100417.75;;;11.41;100.00
18533;BME280;9396;51.510;11.934;2023-02-17T11:26:57;100406.44;;;11.47;100.00
18533;BME280;9396;51.510;11.934;2023-02-17T11:29:24;100405.81;;;11.53;100.00
18533;BME280;9396;51.510;11.934;2023-02-17T11:31:56;100397.50;;;11.56;100.00
18533;BME280;9396;51.510;11.934;2023-02-17T11:34:26;100395.16;;;11.53;100.00
18533;BME280;9396;51.510;11.934;2023-02-17T11:36:58;100394.00;;;11.55;100.00
18533;BME280;9396;51.510;11.934;2023-02-17T11:39:26;100380.22;;;11.60;100.00
18533;BME280;9396;51.510;11.934;2023-02-17T11:41:53;100368.53;;;11.61;100.00
18533;BME280;9396;51.510;11.934;2023-02-17T11:44:23;100361.94;;;11.65;100.00
18533;BME280;9396;51.510;11.934;2023-02-17T11:46:56;100342.91;;;11.60;100.00
18533;BME280;9396;51.510;11.934;2023-02-17T11:52:27;100326.25;;;11.58;100.00
18533;BME280;9396;51.510;11.934;2023-02-17T11:55:10;100319.59;;;11.62;100.00
18533;BME280;9396;51.510;11.934;2023-02-17T11:57:41;100314.28;;;11.62;100.00
18533;BME280;9396;51.510;11.934;2023-02-17T12:00:14;100323.63;;;11.66;100.00
18533;BME280;9396;51.510;11.934;2023-02-17T12:03:01;100315.63;;;11.66;100.00
18533;BME280;9396;51.510;11.934;2023-02-17T12:05:52;100316.00;;;11.71;100.00
18533;BME280;9396;51.510;11.934;2023-02-17T12:08:22;100314.00;;;11.73;100.00
18533;BME280;9396;51.510;11.934;2023-02-17T12:11:03;100318.66;;;11.71;100.00
18533;BME280;9396;51.510;11.934;2023-02-17T12:13:41;100313.97;;;11.65;100.00
18533;BME280;9396;51.510;11.934;2023-02-17T12:16:31;100312.28;;;11.64;100.00
18533;BME280;9396;51.510;11.934;2023-02-17T12:19:18;100310.59;;;11.63;100.00
18533;BME280;9396;51.510;11.934;2023-02-17T12:21:57;100307.50;;;11.67;100.00
18533;BME280;9396;51.510;11.934;2023-02-17T12:24:37;100301.31;;;11.67;100.00
18533;BME280;9396;51.510;11.934;2023-02-17T12:27:17;100303.81;;;11.68;100.00
18533;BME280;9396;51.510;11.934;2023-02-17T12:30:07;100292.69;;;11.73;100.00
18533;BME280;9396;51.510;11.934;2023-02-17T12:32:51;100283.84;;;11.72;100.00
18533;BME280;9396;51.510;11.934;2023-02-17T12:35:23;100286.34;;;11.74;100.00
18533;BME280;9396;51.510;11.934;2023-02-17T12:37:53;100278.03;;;11.77;100.00
18533;BME280;9396;51.510;11.934;2023-02-17T12:40:31;100256.06;;;11.83;100.00
18533;BME280;9396;51.510;11.934;2023-02-17T12:43:06;100263.03;;;11.84;100.00
18533;BME280;9396;51.510;11.934;2023-02-17T12:45:37;100266.19;;;11.88;100.00
18533;BME280;9396;51.510;11.934;2023-02-17T12:48:10;100265.88;;;11.91;100.00
18533;BME280;9396;51.510;11.934;2023-02-17T12:50:44;100232.56;;;11.95;100.00
18533;BME280;9396;51.510;11.934;2023-02-17T12:53:18;100248.72;;;11.93;100.00
18533;BME280;9396;51.510;11.934;2023-02-17T12:55:52;100232.72;;;11.93;100.00
18533;BME280;9396;51.510;11.934;2023-02-17T12:58:24;100188.75;;;11.65;100.00
18533;BME280;9396;51.510;11.934;2023-02-17T13:00:56;100209.75;;;11.92;100.00
18533;BME280;9396;51.510;11.934;2023-02-17T13:03:28;100211.06;;;11.88;100.00
18533;BME280;9396;51.510;11.934;2023-02-17T13:05:59;100204.22;;;11.85;100.00